sensor_id;sensor_type;location;lat;lon;timestamp;P1;durP1;ratioP1;P2;durP2;ratioP2
57191;SDS011;43052;52.588;13.396;2022-12-29T00:02:17;3.58;;;2.40;;
57191;SDS011;43052;52.588;13.396;2022-12-29T00:04:42;4.68;;;2.22;;
57191;SDS011;43052;52.588;13.396;2022-12-29T00:07:08;4.22;;;2.42;;
57191;SDS011;43052;52.588;13.396;2022-12-29T00:09:34;3.95;;;2.38;;
57191;SDS011;43052;52.588;13.396;2022-12-29T00:12:00;5.53;;;2.80;;
57191;SDS011;43052;52.588;13.396;2022-12-29T00:14:27;4.47;;;2.40;;
57191;SDS011;43052;52.588;13.396;2022-12-29T00:17:11;4.50;;;2.80;;
57191;SDS011;43052;52.588;13.396;2022-12-29T00:19:36;4.53;;;2.50;;
57191;SDS011;43052;52.588;13.396;2022-12-29T00:22:20;4.23;;;2.50;;
57191;SDS011;43052;52.588;13.396;2022-12-29T00:25:05;4.45;;;2.30;;
57191;SDS011;43052;52.588;13.396;2022-12-29T00:27:51;4.47;;;2.47;;
57191;SDS011;43052;52.588;13.396;2022-12-29T00:30:35;4.35;;;2.40;;
57191;SDS011;43052;52.588;13.396;2022-12-29T00:33:21;4.32;;;2.50;;
57191;SDS011;43052;52.588;13.396;2022-12-29T00:36:13;5.78;;;3.65;;
57191;SDS011;43052;52.588;13.396;2022-12-29T00:38:43;5.88;;;3.00;;
57191;SDS011;43052;52.588;13.396;2022-12-29T00:41:31;5.03;;;2.60;;
57191;SDS011;43052;52.588;13.396;2022-12-29T00:44:15;4.47;;;2.63;;
57191;SDS011;43052;52.588;13.396;2022-12-29T00:46:41;4.63;;;2.60;;
57191;SDS011;43052;52.588;13.396;2022-12-29T00:49:08;4.38;;;2.63;;
57191;SDS011;43052;52.588;13.396;2022-12-29T00:51:54;3.92;;;2.60;;
57191;SDS011;43052;52.588;13.396;2022-12-29T00:54:20;4.20;;;2.67;;
57191;SDS011;43052;52.588;13.396;2022-12-29T00:56:49;3.35;;;2.40;;
57191;SDS011;43052;52.588;13.396;2022-12-29T00:59:16;4.75;;;2.53;;
57191;SDS011;43052;52.588;13.396;2022-12-29T01:01:41;3.83;;;2.70;;
57191;SDS011;43052;52.588;13.396;2022-12-29T01:04:07;4.63;;;2.67;;
57191;SDS011;43052;52.588;13.396;2022-12-29T01:06:35;5.50;;;2.75;;
57191;SDS011;43052;52.588;13.396;2022-12-29T01:09:01;3.65;;;2.40;;
57191;SDS011;43052;52.588;13.396;2022-12-29T01:11:46;4.53;;;2.50;;
57191;SDS011;43052;52.588;13.396;2022-12-29T01:14:11;5.00;;;2.40;;
57191;SDS011;43052;52.588;13.396;2022-12-29T01:16:36;4.25;;;2.35;;
57191;SDS011;43052;52.588;13.396;2022-12-29T01:19:01;5.68;;;2.40;;
57191;SDS011;43052;52.588;13.396;2022-12-29T01:21:27;3.85;;;2.78;;
57191;SDS011;43052;52.588;13.396;2022-12-29T01:23:52;3.33;;;2.20;;
57191;SDS011;43052;52.588;13.396;2022-12-29T01:26:17;5.05;;;2.50;;
57191;SDS011;43052;52.588;13.396;2022-12-29T01:28:43;6.07;;;2.40;;
57191;SDS011;43052;52.588;13.396;2022-12-29T01:31:09;3.78;;;2.28;;
57191;SDS011;43052;52.588;13.396;2022-12-29T01:33:35;4.15;;;2.17;;
57191;SDS011;43052;52.588;13.396;2022-12-29T01:36:01;3.55;;;2.28;;
57191;SDS011;43052;52.588;13.396;2022-12-29T01:38:27;4.25;;;2.22;;
57191;SDS011;43052;52.588;13.396;2022-12-29T01:40:52;3.60;;;2.30;;
57191;SDS011;43052;52.588;13.396;2022-12-29T01:43:17;5.00;;;2.20;;
57191;SDS011;43052;52.588;13.396;2022-12-29T01:45:48;4.75;;;2.65;;
57191;SDS011;43052;52.588;13.396;2022-12-29T01:48:16;4.38;;;2.28;;
57191;SDS011;43052;52.588;13.396;2022-12-29T01:50:50;5.18;;;2.58;;
57191;SDS011;43052;52.588;13.396;2022-12-29T01:53:18;4.65;;;2.60;;
57191;SDS011;43052;52.588;13.396;2022-12-29T01:55:50;3.72;;;2.58;;
57191;SDS011;43052;52.588;13.396;2022-12-29T01:58:19;5.07;;;2.70;;
57191;SDS011;43052;52.588;13.396;2022-12-29T02:00:48;4.28;;;2.75;;
57191;SDS011;43052;52.588;13.396;2022-12-29T02:03:13;6.15;;;2.80;;
57191;SDS011;43052;52.588;13.396;2022-12-29T02:08:15;5.13;;;2.95;;
57191;SDS011;43052;52.588;13.396;2022-12-29T02:10:40;7.07;;;2.80;;
57191;SDS011;43052;52.588;13.396;2022-12-29T02:13:07;3.38;;;2.70;;
57191;SDS011;43052;52.588;13.396;2022-12-29T02:15:35;4.97;;;2.55;;
57191;SDS011;43052;52.588;13.396;2022-12-29T02:18:24;5.55;;;2.80;;
57191;SDS011;43052;52.588;13.396;2022-12-29T02:21:10;4.57;;;2.50;;
57191;SDS011;43052;52.588;13.396;2022-12-29T02:24:12;4.57;;;2.30;;
57191;SDS011;43052;52.588;13.396;2022-12-29T02:26:55;4.07;;;2.30;;
57191;SDS011;43052;52.588;13.396;2022-12-29T02:32:45;5.10;;;2.35;;
57191;SDS011;43052;52.588;13.396;2022-12-29T02:43:16;4.35;;;2.55;;
57191;SDS011;43052;52.588;13.396;2022-12-29T02:46:08;5.50;;;2.63;;
57191;SDS011;43052;52.588;13.396;2022-12-29T02:49:05;3.38;;;2.30;;
57191;SDS011;43052;52.588;13.396;2022-12-29T02:51:54;4.35;;;2.20;;
57191;SDS011;43052;52.588;13.396;2022-12-29T02:54:28;3.78;;;2.20;;
57191;SDS011;43052;52.588;13.396;2022-12-29T02:57:10;4.82;;;2.33;;
57191;SDS011;43052;52.588;13.396;2022-12-29T02:59:35;3.45;;;2.30;;
57191;SDS011;43052;52.588;13.396;2022-12-29T03:02:07;4.90;;;2.20;;
57191;SDS011;43052;52.588;13.396;2022-12-29T03:05:05;5.53;;;2.50;;
57191;SDS011;43052;52.588;13.396;2022-12-29T03:19:02;3.13;;;2.00;;
57191;SDS011;43052;52.588;13.396;2022-12-29T03:21:34;4.97;;;2.20;;
57191;SDS011;43052;52.588;13.396;2022-12-29T03:24:24;3.65;;;2.55;;
57191;SDS011;43052;52.588;13.396;2022-12-29T03:26:52;3.17;;;1.83;;
57191;SDS011;43052;52.588;13.396;2022-12-29T03:29:21;3.53;;;2.60;;
57191;SDS011;43052;52.588;13.396;2022-12-29T03:31:48;3.45;;;2.13;;
57191;SDS011;43052;52.588;13.396;2022-12-29T03:34:16;3.88;;;2.38;;
57191;SDS011;43052;52.588;13.396;2022-12-29T03:36:47;4.10;;;2.30;;
57191;SDS011;43052;52.588;13.396;2022-12-29T03:39:17;3.95;;;2.45;;
57191;SDS011;43052;52.588;13.396;2022-12-29T03:41:46;3.35;;;1.90;;
57191;SDS011;43052;52.588;13.396;2022-12-29T03:44:19;4.13;;;2.10;;
57191;SDS011;43052;52.588;13.396;2022-12-29T03:46:45;3.47;;;2.08;;
57191;SDS011;43052;52.588;13.396;2022-12-29T03:49:10;4.32;;;2.10;;
57191;SDS011;43052;52.588;13.396;2022-12-29T03:51:35;4.32;;;2.88;;
57191;SDS011;43052;52.588;13.396;2022-12-29T03:54:00;5.75;;;2.22;;
57191;SDS011;43052;52.588;13.396;2022-12-29T03:56:26;2.50;;;1.85;;
57191;SDS011;43052;52.588;13.396;2022-12-29T03:58:51;3.80;;;2.00;;
57191;SDS011;43052;52.588;13.396;2022-12-29T04:01:16;5.25;;;2.40;;
57191;SDS011;43052;52.588;13.396;2022-12-29T04:03:42;3.40;;;1.90;;
57191;SDS011;43052;52.588;13.396;2022-12-29T04:06:07;3.85;;;2.17;;
57191;SDS011;43052;52.588;13.396;2022-12-29T04:08:32;4.68;;;2.65;;
57191;SDS011;43052;52.588;13.396;2022-12-29T04:10:58;5.72;;;2.33;;
57191;SDS011;43052;52.588;13.396;2022-12-29T04:13:23;5.13;;;2.20;;
57191;SDS011;43052;52.588;13.396;2022-12-29T04:15:48;3.40;;;2.13;;
57191;SDS011;43052;52.588;13.396;2022-12-29T04:18:13;4.07;;;2.10;;
57191;SDS011;43052;52.588;13.396;2022-12-29T04:20:39;6.93;;;2.20;;
57191;SDS011;43052;52.588;13.396;2022-12-29T04:23:23;3.13;;;2.00;;
57191;SDS011;43052;52.588;13.396;2022-12-29T04:25:48;5.00;;;2.60;;
57191;SDS011;43052;52.588;13.396;2022-12-29T04:28:14;4.43;;;2.25;;
57191;SDS011;43052;52.588;13.396;2022-12-29T04:30:40;5.45;;;2.42;;
57191;SDS011;43052;52.588;13.396;2022-12-29T04:33:05;5.13;;;2.20;;
57191;SDS011;43052;52.588;13.396;2022-12-29T04:35:30;6.65;;;2.50;;
57191;SDS011;43052;52.588;13.396;2022-12-29T04:37:56;4.43;;;2.17;;
57191;SDS011;43052;52.588;13.396;2022-12-29T04:40:21;4.05;;;2.10;;
57191;SDS011;43052;52.588;13.396;2022-12-29T04:42:48;4.60;;;2.25;;
57191;SDS011;43052;52.588;13.396;2022-12-29T04:45:13;2.58;;;2.00;;
57191;SDS011;43052;52.588;13.396;2022-12-29T04:47:38;3.05;;;2.10;;
57191;SDS011;43052;52.588;13.396;2022-12-29T04:50:04;2.97;;;2.05;;
57191;SDS011;43052;52.588;13.396;2022-12-29T04:52:29;4.18;;;2.22;;
57191;SDS011;43052;52.588;13.396;2022-12-29T04:54:54;3.97;;;2.22;;
57191;SDS011;43052;52.588;13.396;2022-12-29T04:57:20;2.88;;;2.00;;
57191;SDS011;43052;52.588;13.396;2022-12-29T04:59:45;4.07;;;2.35;;
57191;SDS011;43052;52.588;13.396;2022-12-29T05:02:10;4.53;;;2.20;;
57191;SDS011;43052;52.588;13.396;2022-12-29T05:04:35;6.20;;;2.70;;
57191;SDS011;43052;52.588;13.396;2022-12-29T05:07:01;4.30;;;2.45;;
57191;SDS011;43052;52.588;13.396;2022-12-29T05:09:26;3.17;;;2.50;;
57191;SDS011;43052;52.588;13.396;2022-12-29T05:11:51;3.10;;;2.28;;
57191;SDS011;43052;52.588;13.396;2022-12-29T05:14:16;5.10;;;2.22;;
57191;SDS011;43052;52.588;13.396;2022-12-29T05:16:42;3.60;;;2.00;;
57191;SDS011;43052;52.588;13.396;2022-12-29T05:19:07;3.28;;;2.20;;
57191;SDS011;43052;52.588;13.396;2022-12-29T05:21:32;4.20;;;2.40;;
57191;SDS011;43052;52.588;13.396;2022-12-29T05:23:57;2.95;;;2.00;;
57191;SDS011;43052;52.588;13.396;2022-12-29T05:26:23;5.00;;;2.30;;
57191;SDS011;43052;52.588;13.396;2022-12-29T05:28:48;4.47;;;2.42;;
57191;SDS011;43052;52.588;13.396;2022-12-29T05:31:13;3.50;;;2.60;;
57191;SDS011;43052;52.588;13.396;2022-12-29T05:33:38;4.68;;;3.15;;
57191;SDS011;43052;52.588;13.396;2022-12-29T05:36:07;4.45;;;2.40;;
57191;SDS011;43052;52.588;13.396;2022-12-29T05:38:33;4.03;;;2.35;;
57191;SDS011;43052;52.588;13.396;2022-12-29T05:40:59;3.00;;;1.90;;
57191;SDS011;43052;52.588;13.396;2022-12-29T05:43:24;4.20;;;2.30;;
57191;SDS011;43052;52.588;13.396;2022-12-29T05:45:49;4.97;;;2.60;;
57191;SDS011;43052;52.588;13.396;2022-12-29T05:48:15;3.35;;;2.10;;
57191;SDS011;43052;52.588;13.396;2022-12-29T05:50:40;5.45;;;2.58;;
57191;SDS011;43052;52.588;13.396;2022-12-29T05:53:06;4.38;;;2.53;;
57191;SDS011;43052;52.588;13.396;2022-12-29T05:55:32;7.70;;;2.90;;
57191;SDS011;43052;52.588;13.396;2022-12-29T05:57:57;3.08;;;2.00;;
57191;SDS011;43052;52.588;13.396;2022-12-29T06:00:23;3.00;;;2.00;;
57191;SDS011;43052;52.588;13.396;2022-12-29T06:02:49;3.85;;;2.25;;
57191;SDS011;43052;52.588;13.396;2022-12-29T06:05:14;3.60;;;2.60;;
57191;SDS011;43052;52.588;13.396;2022-12-29T06:07:40;5.63;;;2.40;;
57191;SDS011;43052;52.588;13.396;2022-12-29T06:10:05;4.63;;;2.53;;
57191;SDS011;43052;52.588;13.396;2022-12-29T06:12:31;3.78;;;2.13;;
57191;SDS011;43052;52.588;13.396;2022-12-29T06:14:56;3.80;;;2.25;;
57191;SDS011;43052;52.588;13.396;2022-12-29T06:17:21;4.32;;;2.53;;
57191;SDS011;43052;52.588;13.396;2022-12-29T06:19:46;3.85;;;2.25;;
57191;SDS011;43052;52.588;13.396;2022-12-29T06:22:12;2.83;;;2.08;;
57191;SDS011;43052;52.588;13.396;2022-12-29T06:24:37;2.88;;;2.08;;
57191;SDS011;43052;52.588;13.396;2022-12-29T06:27:03;3.00;;;1.95;;
57191;SDS011;43052;52.588;13.396;2022-12-29T06:29:28;2.78;;;1.88;;
57191;SDS011;43052;52.588;13.396;2022-12-29T06:31:53;4.68;;;2.20;;
57191;SDS011;43052;52.588;13.396;2022-12-29T06:34:22;3.92;;;2.03;;
57191;SDS011;43052;52.588;13.396;2022-12-29T06:36:48;2.83;;;1.90;;
57191;SDS011;43052;52.588;13.396;2022-12-29T06:39:14;4.45;;;2.20;;
57191;SDS011;43052;52.588;13.396;2022-12-29T06:41:39;3.47;;;1.92;;
57191;SDS011;43052;52.588;13.396;2022-12-29T06:44:04;2.90;;;2.08;;
57191;SDS011;43052;52.588;13.396;2022-12-29T06:46:29;3.25;;;1.90;;
57191;SDS011;43052;52.588;13.396;2022-12-29T06:48:55;3.63;;;2.03;;
57191;SDS011;43052;52.588;13.396;2022-12-29T06:51:20;3.67;;;1.90;;
57191;SDS011;43052;52.588;13.396;2022-12-29T06:53:45;3.13;;;2.15;;
57191;SDS011;43052;52.588;13.396;2022-12-29T06:56:10;2.30;;;1.83;;
57191;SDS011;43052;52.588;13.396;2022-12-29T06:58:36;3.00;;;1.90;;
57191;SDS011;43052;52.588;13.396;2022-12-29T07:01:01;3.42;;;1.98;;
57191;SDS011;43052;52.588;13.396;2022-12-29T07:03:26;2.40;;;1.73;;
57191;SDS011;43052;52.588;13.396;2022-12-29T07:05:51;2.85;;;1.73;;
57191;SDS011;43052;52.588;13.396;2022-12-29T07:08:17;3.70;;;1.95;;
57191;SDS011;43052;52.588;13.396;2022-12-29T07:10:42;3.35;;;1.88;;
57191;SDS011;43052;52.588;13.396;2022-12-29T07:13:07;5.85;;;2.53;;
57191;SDS011;43052;52.588;13.396;2022-12-29T07:15:33;4.20;;;2.00;;
57191;SDS011;43052;52.588;13.396;2022-12-29T07:17:58;2.22;;;1.67;;
57191;SDS011;43052;52.588;13.396;2022-12-29T07:20:24;3.17;;;2.20;;
57191;SDS011;43052;52.588;13.396;2022-12-29T07:22:49;3.75;;;2.10;;
57191;SDS011;43052;52.588;13.396;2022-12-29T07:25:14;2.53;;;1.98;;
57191;SDS011;43052;52.588;13.396;2022-12-29T07:27:39;2.85;;;1.90;;
57191;SDS011;43052;52.588;13.396;2022-12-29T07:30:05;3.88;;;2.05;;
57191;SDS011;43052;52.588;13.396;2022-12-29T07:32:33;2.83;;;1.80;;
57191;SDS011;43052;52.588;13.396;2022-12-29T07:34:59;3.85;;;1.98;;
57191;SDS011;43052;52.588;13.396;2022-12-29T07:37:25;4.78;;;2.08;;
57191;SDS011;43052;52.588;13.396;2022-12-29T07:39:51;2.95;;;2.03;;
57191;SDS011;43052;52.588;13.396;2022-12-29T07:42:16;3.50;;;2.20;;
57191;SDS011;43052;52.588;13.396;2022-12-29T07:44:41;2.80;;;1.95;;
57191;SDS011;43052;52.588;13.396;2022-12-29T07:47:06;2.92;;;1.88;;
57191;SDS011;43052;52.588;13.396;2022-12-29T07:49:32;1.95;;;1.70;;
57191;SDS011;43052;52.588;13.396;2022-12-29T07:51:57;3.10;;;1.95;;
57191;SDS011;43052;52.588;13.396;2022-12-29T07:54:22;3.92;;;1.85;;
57191;SDS011;43052;52.588;13.396;2022-12-29T07:56:48;2.65;;;1.83;;
57191;SDS011;43052;52.588;13.396;2022-12-29T07:59:13;2.63;;;1.90;;
57191;SDS011;43052;52.588;13.396;2022-12-29T08:01:39;3.55;;;1.80;;
57191;SDS011;43052;52.588;13.396;2022-12-29T08:04:04;3.17;;;1.90;;
57191;SDS011;43052;52.588;13.396;2022-12-29T08:06:30;1.80;;;1.70;;
57191;SDS011;43052;52.588;13.396;2022-12-29T08:08:55;3.15;;;1.60;;
57191;SDS011;43052;52.588;13.396;2022-12-29T08:11:21;2.45;;;1.85;;
57191;SDS011;43052;52.588;13.396;2022-12-29T08:13:47;3.47;;;2.10;;
57191;SDS011;43052;52.588;13.396;2022-12-29T08:16:12;3.05;;;2.20;;
57191;SDS011;43052;52.588;13.396;2022-12-29T08:18:37;2.03;;;1.65;;
57191;SDS011;43052;52.588;13.396;2022-12-29T08:21:03;2.88;;;1.60;;
57191;SDS011;43052;52.588;13.396;2022-12-29T08:23:28;5.93;;;1.80;;
57191;SDS011;43052;52.588;13.396;2022-12-29T08:25:58;4.28;;;1.83;;
57191;SDS011;43052;52.588;13.396;2022-12-29T08:28:24;4.00;;;2.10;;
57191;SDS011;43052;52.588;13.396;2022-12-29T08:30:49;2.95;;;1.75;;
57191;SDS011;43052;52.588;13.396;2022-12-29T08:33:14;3.17;;;1.70;;
57191;SDS011;43052;52.588;13.396;2022-12-29T08:35:39;2.67;;;1.83;;
57191;SDS011;43052;52.588;13.396;2022-12-29T08:38:05;2.65;;;1.80;;
57191;SDS011;43052;52.588;13.396;2022-12-29T08:40:30;2.88;;;1.73;;
57191;SDS011;43052;52.588;13.396;2022-12-29T08:42:55;2.72;;;1.50;;
57191;SDS011;43052;52.588;13.396;2022-12-29T08:45:20;3.05;;;1.85;;
57191;SDS011;43052;52.588;13.396;2022-12-29T08:47:46;2.92;;;1.80;;
57191;SDS011;43052;52.588;13.396;2022-12-29T08:50:11;4.50;;;1.70;;
57191;SDS011;43052;52.588;13.396;2022-12-29T08:52:36;3.75;;;2.38;;
57191;SDS011;43052;52.588;13.396;2022-12-29T08:55:01;2.83;;;1.98;;
57191;SDS011;43052;52.588;13.396;2022-12-29T08:57:27;3.28;;;2.15;;
57191;SDS011;43052;52.588;13.396;2022-12-29T08:59:52;3.00;;;1.85;;
57191;SDS011;43052;52.588;13.396;2022-12-29T09:02:17;1.75;;;1.45;;
57191;SDS011;43052;52.588;13.396;2022-12-29T09:04:42;4.07;;;2.30;;
57191;SDS011;43052;52.588;13.396;2022-12-29T09:07:08;4.82;;;1.92;;
57191;SDS011;43052;52.588;13.396;2022-12-29T09:09:33;2.03;;;1.70;;
57191;SDS011;43052;52.588;13.396;2022-12-29T09:11:58;3.70;;;2.00;;
57191;SDS011;43052;52.588;13.396;2022-12-29T09:14:24;2.10;;;1.60;;
57191;SDS011;43052;52.588;13.396;2022-12-29T09:16:51;2.55;;;2.05;;
57191;SDS011;43052;52.588;13.396;2022-12-29T09:19:35;2.08;;;1.85;;
57191;SDS011;43052;52.588;13.396;2022-12-29T09:22:00;5.13;;;3.50;;
57191;SDS011;43052;52.588;13.396;2022-12-29T09:24:26;1.95;;;1.60;;
57191;SDS011;43052;52.588;13.396;2022-12-29T09:26:51;2.38;;;1.70;;
57191;SDS011;43052;52.588;13.396;2022-12-29T09:29:16;2.08;;;1.60;;
57191;SDS011;43052;52.588;13.396;2022-12-29T09:31:41;2.38;;;1.95;;
57191;SDS011;43052;52.588;13.396;2022-12-29T09:34:07;1.75;;;1.65;;
57191;SDS011;43052;52.588;13.396;2022-12-29T09:36:32;3.08;;;1.55;;
57191;SDS011;43052;52.588;13.396;2022-12-29T09:38:57;3.78;;;1.55;;
57191;SDS011;43052;52.588;13.396;2022-12-29T09:41:24;2.83;;;1.75;;
57191;SDS011;43052;52.588;13.396;2022-12-29T09:43:57;2.15;;;1.55;;
57191;SDS011;43052;52.588;13.396;2022-12-29T09:46:38;3.03;;;1.80;;
57191;SDS011;43052;52.588;13.396;2022-12-29T09:49:14;4.53;;;1.98;;
57191;SDS011;43052;52.588;13.396;2022-12-29T09:51:46;2.17;;;1.80;;
57191;SDS011;43052;52.588;13.396;2022-12-29T09:54:37;2.85;;;1.88;;
57191;SDS011;43052;52.588;13.396;2022-12-29T09:57:11;3.72;;;2.10;;
57191;SDS011;43052;52.588;13.396;2022-12-29T09:59:41;2.38;;;1.60;;
57191;SDS011;43052;52.588;13.396;2022-12-29T10:02:13;1.80;;;1.50;;
57191;SDS011;43052;52.588;13.396;2022-12-29T10:04:48;2.85;;;1.60;;
57191;SDS011;43052;52.588;13.396;2022-12-29T10:07:35;3.15;;;1.50;;
57191;SDS011;43052;52.588;13.396;2022-12-29T10:10:23;2.55;;;1.77;;
57191;SDS011;43052;52.588;13.396;2022-12-29T10:16:00;2.30;;;1.70;;
57191;SDS011;43052;52.588;13.396;2022-12-29T10:18:46;2.97;;;1.70;;
57191;SDS011;43052;52.588;13.396;2022-12-29T10:24:28;3.60;;;1.73;;
57191;SDS011;43052;52.588;13.396;2022-12-29T10:26:55;3.17;;;1.90;;
57191;SDS011;43052;52.588;13.396;2022-12-29T10:29:24;4.05;;;1.90;;
57191;SDS011;43052;52.588;13.396;2022-12-29T10:32:10;4.70;;;1.60;;
57191;SDS011;43052;52.588;13.396;2022-12-29T10:34:47;2.15;;;1.42;;
57191;SDS011;43052;52.588;13.396;2022-12-29T10:38:01;5.13;;;1.65;;
57191;SDS011;43052;52.588;13.396;2022-12-29T10:40:57;2.35;;;1.77;;
57191;SDS011;43052;52.588;13.396;2022-12-29T10:45:54;4.40;;;2.50;;
57191;SDS011;43052;52.588;13.396;2022-12-29T10:48:24;2.65;;;1.60;;
57191;SDS011;43052;52.588;13.396;2022-12-29T10:50:56;3.50;;;1.73;;
57191;SDS011;43052;52.588;13.396;2022-12-29T10:53:24;3.95;;;1.60;;
57191;SDS011;43052;52.588;13.396;2022-12-29T10:55:55;2.25;;;1.33;;
57191;SDS011;43052;52.588;13.396;2022-12-29T10:58:20;2.40;;;1.45;;
57191;SDS011;43052;52.588;13.396;2022-12-29T11:00:51;1.83;;;1.50;;
57191;SDS011;43052;52.588;13.396;2022-12-29T11:06:07;4.05;;;1.50;;
57191;SDS011;43052;52.588;13.396;2022-12-29T11:08:38;2.00;;;1.45;;
57191;SDS011;43052;52.588;13.396;2022-12-29T11:11:10;3.17;;;1.45;;
57191;SDS011;43052;52.588;13.396;2022-12-29T11:13:50;2.47;;;1.42;;
57191;SDS011;43052;52.588;13.396;2022-12-29T11:16:33;2.42;;;1.92;;
57191;SDS011;43052;52.588;13.396;2022-12-29T11:18:59;3.83;;;1.85;;
57191;SDS011;43052;52.588;13.396;2022-12-29T11:21:35;2.08;;;1.30;;
57191;SDS011;43052;52.588;13.396;2022-12-29T11:24:19;2.30;;;1.48;;
57191;SDS011;43052;52.588;13.396;2022-12-29T11:26:45;3.75;;;1.20;;
57191;SDS011;43052;52.588;13.396;2022-12-29T11:29:16;3.60;;;1.65;;
57191;SDS011;43052;52.588;13.396;2022-12-29T11:31:47;2.13;;;1.50;;
57191;SDS011;43052;52.588;13.396;2022-12-29T11:34:17;3.08;;;1.50;;
57191;SDS011;43052;52.588;13.396;2022-12-29T11:36:44;5.53;;;1.60;;
57191;SDS011;43052;52.588;13.396;2022-12-29T11:42:39;2.47;;;1.40;;
57191;SDS011;43052;52.588;13.396;2022-12-29T11:45:22;2.47;;;1.48;;
57191;SDS011;43052;52.588;13.396;2022-12-29T11:47:51;2.30;;;1.25;;
57191;SDS011;43052;52.588;13.396;2022-12-29T11:50:20;3.75;;;1.80;;
57191;SDS011;43052;52.588;13.396;2022-12-29T11:52:48;1.88;;;1.33;;
57191;SDS011;43052;52.588;13.396;2022-12-29T11:55:21;4.63;;;1.45;;
57191;SDS011;43052;52.588;13.396;2022-12-29T11:57:50;2.85;;;1.30;;
57191;SDS011;43052;52.588;13.396;2022-12-29T12:00:20;2.35;;;1.38;;
57191;SDS011;43052;52.588;13.396;2022-12-29T12:05:41;2.75;;;1.38;;
57191;SDS011;43052;52.588;13.396;2022-12-29T12:08:12;2.03;;;1.48;;
57191;SDS011;43052;52.588;13.396;2022-12-29T12:10:43;2.28;;;1.33;;
57191;SDS011;43052;52.588;13.396;2022-12-29T12:13:22;2.35;;;1.48;;
57191;SDS011;43052;52.588;13.396;2022-12-29T12:15:57;2.35;;;1.40;;
57191;SDS011;43052;52.588;13.396;2022-12-29T12:26:23;2.35;;;1.20;;
57191;SDS011;43052;52.588;13.396;2022-12-29T12:29:12;2.00;;;1.10;;
57191;SDS011;43052;52.588;13.396;2022-12-29T12:31:48;2.22;;;1.30;;
57191;SDS011;43052;52.588;13.396;2022-12-29T12:34:41;1.55;;;1.08;;
57191;SDS011;43052;52.588;13.396;2022-12-29T12:37:15;0.90;;;0.85;;
57191;SDS011;43052;52.588;13.396;2022-12-29T12:40:06;1.30;;;1.10;;
57191;SDS011;43052;52.588;13.396;2022-12-29T12:45:16;3.00;;;1.50;;
57191;SDS011;43052;52.588;13.396;2022-12-29T12:53:57;1.08;;;0.98;;
57191;SDS011;43052;52.588;13.396;2022-12-29T12:56:36;2.42;;;1.25;;
57191;SDS011;43052;52.588;13.396;2022-12-29T12:59:15;2.67;;;1.17;;
57191;SDS011;43052;52.588;13.396;2022-12-29T13:02:03;1.60;;;1.10;;
57191;SDS011;43052;52.588;13.396;2022-12-29T13:04:48;3.17;;;1.20;;
57191;SDS011;43052;52.588;13.396;2022-12-29T13:10:22;2.40;;;1.15;;
57191;SDS011;43052;52.588;13.396;2022-12-29T13:16:22;1.20;;;0.88;;
57191;SDS011;43052;52.588;13.396;2022-12-29T13:19:01;3.47;;;1.30;;
57191;SDS011;43052;52.588;13.396;2022-12-29T13:24:28;1.45;;;1.33;;
57191;SDS011;43052;52.588;13.396;2022-12-29T13:27:09;2.20;;;1.10;;
57191;SDS011;43052;52.588;13.396;2022-12-29T13:33:02;1.20;;;1.10;;
57191;SDS011;43052;52.588;13.396;2022-12-29T13:35:52;2.08;;;1.50;;
57191;SDS011;43052;52.588;13.396;2022-12-29T13:38:40;3.50;;;1.30;;
57191;SDS011;43052;52.588;13.396;2022-12-29T13:41:14;2.65;;;1.60;;
57191;SDS011;43052;52.588;13.396;2022-12-29T13:43:44;3.08;;;1.48;;
57191;SDS011;43052;52.588;13.396;2022-12-29T13:46:13;3.58;;;1.70;;
57191;SDS011;43052;52.588;13.396;2022-12-29T13:48:44;2.65;;;1.30;;
57191;SDS011;43052;52.588;13.396;2022-12-29T13:51:14;3.13;;;1.20;;
57191;SDS011;43052;52.588;13.396;2022-12-29T13:53:54;2.38;;;1.60;;
57191;SDS011;43052;52.588;13.396;2022-12-29T13:59:35;4.82;;;2.05;;
57191;SDS011;43052;52.588;13.396;2022-12-29T14:02:26;2.35;;;1.23;;
57191;SDS011;43052;52.588;13.396;2022-12-29T14:08:29;1.30;;;1.20;;
57191;SDS011;43052;52.588;13.396;2022-12-29T14:11:00;2.50;;;1.20;;
57191;SDS011;43052;52.588;13.396;2022-12-29T14:13:33;2.10;;;1.50;;
57191;SDS011;43052;52.588;13.396;2022-12-29T14:16:03;2.78;;;1.35;;
57191;SDS011;43052;52.588;13.396;2022-12-29T14:18:30;1.90;;;1.70;;
57191;SDS011;43052;52.588;13.396;2022-12-29T14:20:59;2.55;;;1.50;;
57191;SDS011;43052;52.588;13.396;2022-12-29T14:23:41;2.22;;;1.60;;
57191;SDS011;43052;52.588;13.396;2022-12-29T14:28:42;2.63;;;1.60;;
57191;SDS011;43052;52.588;13.396;2022-12-29T14:33:39;2.92;;;1.65;;
57191;SDS011;43052;52.588;13.396;2022-12-29T14:36:19;3.67;;;1.90;;
57191;SDS011;43052;52.588;13.396;2022-12-29T14:38:57;3.40;;;1.80;;
57191;SDS011;43052;52.588;13.396;2022-12-29T14:41:44;2.80;;;1.63;;
57191;SDS011;43052;52.588;13.396;2022-12-29T14:44:12;3.20;;;1.85;;
57191;SDS011;43052;52.588;13.396;2022-12-29T14:46:47;2.38;;;1.73;;
57191;SDS011;43052;52.588;13.396;2022-12-29T14:49:22;3.13;;;2.00;;
57191;SDS011;43052;52.588;13.396;2022-12-29T14:51:53;3.20;;;2.10;;
57191;SDS011;43052;52.588;13.396;2022-12-29T14:57:01;4.18;;;1.85;;
57191;SDS011;43052;52.588;13.396;2022-12-29T14:59:29;5.45;;;3.05;;
57191;SDS011;43052;52.588;13.396;2022-12-29T15:01:57;4.68;;;2.67;;
57191;SDS011;43052;52.588;13.396;2022-12-29T15:04:24;5.05;;;2.15;;
57191;SDS011;43052;52.588;13.396;2022-12-29T15:06:55;3.90;;;2.22;;
57191;SDS011;43052;52.588;13.396;2022-12-29T15:09:23;3.90;;;2.20;;
57191;SDS011;43052;52.588;13.396;2022-12-29T15:11:53;3.67;;;2.00;;
57191;SDS011;43052;52.588;13.396;2022-12-29T15:16:54;4.68;;;1.85;;
57191;SDS011;43052;52.588;13.396;2022-12-29T15:19:22;3.70;;;1.67;;
57191;SDS011;43052;52.588;13.396;2022-12-29T15:21:49;6.72;;;1.63;;
57191;SDS011;43052;52.588;13.396;2022-12-29T15:24:14;2.78;;;1.35;;
57191;SDS011;43052;52.588;13.396;2022-12-29T15:26:41;2.83;;;1.50;;
57191;SDS011;43052;52.588;13.396;2022-12-29T15:31:55;2.85;;;1.42;;
57191;SDS011;43052;52.588;13.396;2022-12-29T15:34:20;2.53;;;1.83;;
57191;SDS011;43052;52.588;13.396;2022-12-29T15:36:46;2.92;;;1.90;;
57191;SDS011;43052;52.588;13.396;2022-12-29T15:39:18;3.20;;;2.10;;
57191;SDS011;43052;52.588;13.396;2022-12-29T15:41:49;3.22;;;1.73;;
57191;SDS011;43052;52.588;13.396;2022-12-29T15:44:32;4.05;;;2.05;;
57191;SDS011;43052;52.588;13.396;2022-12-29T15:47:03;4.40;;;2.20;;
57191;SDS011;43052;52.588;13.396;2022-12-29T15:49:30;3.72;;;2.10;;
57191;SDS011;43052;52.588;13.396;2022-12-29T15:51:55;6.20;;;2.20;;
57191;SDS011;43052;52.588;13.396;2022-12-29T15:54:21;2.88;;;1.75;;
57191;SDS011;43052;52.588;13.396;2022-12-29T15:56:48;3.47;;;1.83;;
57191;SDS011;43052;52.588;13.396;2022-12-29T16:01:54;5.97;;;2.50;;
57191;SDS011;43052;52.588;13.396;2022-12-29T16:04:21;4.57;;;2.40;;
57191;SDS011;43052;52.588;13.396;2022-12-29T16:06:58;4.90;;;2.78;;
57191;SDS011;43052;52.588;13.396;2022-12-29T16:09:42;4.50;;;2.63;;
57191;SDS011;43052;52.588;13.396;2022-12-29T16:12:15;4.55;;;2.75;;
57191;SDS011;43052;52.588;13.396;2022-12-29T16:14:46;6.43;;;3.40;;
57191;SDS011;43052;52.588;13.396;2022-12-29T16:17:16;5.82;;;2.95;;
57191;SDS011;43052;52.588;13.396;2022-12-29T16:19:49;4.72;;;2.72;;
57191;SDS011;43052;52.588;13.396;2022-12-29T16:22:27;4.70;;;2.40;;
57191;SDS011;43052;52.588;13.396;2022-12-29T16:24:59;5.32;;;2.20;;
57191;SDS011;43052;52.588;13.396;2022-12-29T16:27:32;3.65;;;2.35;;